Terminal Aerodrome Forecast
Issued by NWS Charleston, SC

Home | Current Version | Previous Version | Text Only | Print | Product List | Glossary On
Versions: 1 2 3 4 5 6 7 8 9 10 11 12 13 14 15 16
823
FTUS42 KCHS 252320
TAFCHS
TAF
KCHS 252320Z 2600/2624 18009KT P6SM FEW250
     FM260300 21005KT P6SM FEW025
     FM261800 19010KT P6SM SCT045=

USA.gov is the U.S. government's official web portal to all federal, state and local government web resources and services.